createdAt,value
2022-11-04T00:02:16.880Z,8.82
2022-11-04T00:04:43.998Z,9.00
2022-11-04T00:07:31.150Z,9.27
2022-11-04T00:09:58.208Z,7.93
2022-11-04T00:12:25.237Z,8.85
2022-11-04T00:14:52.429Z,8.52
2022-11-04T00:17:19.734Z,9.05
2022-11-04T00:20:07.723Z,9.00
2022-11-04T00:22:54.310Z,9.07
2022-11-04T00:28:35.350Z,9.43
2022-11-04T00:31:22.664Z,8.80
2022-11-04T00:33:51.551Z,9.20
2022-11-04T00:36:18.979Z,9.02
2022-11-04T00:38:46.706Z,9.52
2022-11-04T00:41:26.672Z,9.13
2022-11-04T00:43:56.306Z,9.35
2022-11-04T00:46:23.656Z,8.80
2022-11-04T00:48:50.730Z,9.23
2022-11-04T00:51:18.424Z,8.82
2022-11-04T00:53:45.828Z,9.05
2022-11-04T00:56:13.107Z,9.20
2022-11-04T00:58:40.374Z,8.70
2022-11-04T01:01:09.551Z,8.77
2022-11-04T01:03:37.240Z,8.90
2022-11-04T01:06:04.561Z,8.73
2022-11-04T01:08:31.737Z,9.07
2022-11-04T01:11:03.115Z,9.55
2022-11-04T01:13:30.269Z,8.70
2022-11-04T01:16:07.195Z,9.15
2022-11-04T01:18:34.799Z,8.38
2022-11-04T01:21:03.989Z,8.68
2022-11-04T01:23:31.518Z,8.40
2022-11-04T01:25:58.583Z,9.65
2022-11-04T01:28:26.950Z,8.95
2022-11-04T01:30:53.985Z,8.57
2022-11-04T01:33:21.259Z,9.02
2022-11-04T01:35:48.239Z,8.90
2022-11-04T01:38:15.338Z,8.90
2022-11-04T01:40:42.970Z,8.65
2022-11-04T01:43:21.911Z,8.95
2022-11-04T01:46:01.680Z,9.32
2022-11-04T01:48:34.386Z,9.20
2022-11-04T01:51:01.468Z,8.77
2022-11-04T01:53:35.745Z,9.25
2022-11-04T01:56:12.346Z,8.60
2022-11-04T01:58:46.035Z,9.32
2022-11-04T02:01:13.472Z,9.02
2022-11-04T02:04:19.506Z,9.68
2022-11-04T02:06:48.670Z,9.13
2022-11-04T02:09:18.664Z,9.65
2022-11-04T02:12:04.812Z,9.20
2022-11-04T02:14:34.644Z,9.45
2022-11-04T02:17:23.104Z,9.43
2022-11-04T02:20:14.943Z,9.15
2022-11-04T02:23:08.796Z,9.50
2022-11-04T02:26:03.947Z,9.40
2022-11-04T02:28:50.785Z,10.02
2022-11-04T02:31:23.831Z,10.20
2022-11-04T02:34:09.759Z,9.90
2022-11-04T02:36:55.546Z,9.15
2022-11-04T02:39:35.068Z,9.48
2022-11-04T02:42:14.052Z,9.33
2022-11-04T02:45:00.282Z,9.60
2022-11-04T02:47:31.872Z,9.23
2022-11-04T02:50:12.577Z,9.75
2022-11-04T02:52:48.596Z,9.25
2022-11-04T02:55:23.621Z,8.88
2022-11-04T02:57:54.584Z,9.10
2022-11-04T03:00:22.154Z,9.15
2022-11-04T03:03:10.072Z,8.75
2022-11-04T03:06:05.184Z,9.27
2022-11-04T03:08:39.721Z,9.90
2022-11-04T03:11:22.149Z,9.68
2022-11-04T03:14:01.916Z,9.05
2022-11-04T03:16:33.194Z,9.07
2022-11-04T03:19:15.495Z,8.65
2022-11-04T03:21:51.304Z,8.77
2022-11-04T03:24:18.402Z,9.05
2022-11-04T03:26:53.110Z,9.90
2022-11-04T03:29:37.946Z,8.77
2022-11-04T03:32:08.467Z,8.95
2022-11-04T03:34:37.710Z,9.45
2022-11-04T03:37:05.465Z,9.05
2022-11-04T03:39:33.153Z,10.38
2022-11-04T03:42:20.548Z,9.75
2022-11-04T03:44:53.554Z,9.45
2022-11-04T03:47:26.622Z,9.90
2022-11-04T03:50:09.910Z,9.15
2022-11-04T03:52:37.275Z,9.80
2022-11-04T03:55:06.431Z,9.98
2022-11-04T03:58:01.261Z,9.57
2022-11-04T04:00:34.084Z,10.13
2022-11-04T04:03:16.136Z,9.18
2022-11-04T04:06:02.952Z,9.02
2022-11-04T04:08:44.724Z,9.25
2022-11-04T04:11:41.838Z,9.68
2022-11-04T04:14:11.658Z,9.98
2022-11-04T04:16:41.692Z,9.20
2022-11-04T04:19:13.985Z,9.30
2022-11-04T04:21:59.287Z,9.27
2022-11-04T04:24:51.748Z,9.48
2022-11-04T04:27:33.348Z,9.63
2022-11-04T04:30:06.632Z,10.43
2022-11-04T04:32:47.500Z,10.15
2022-11-04T04:35:33.790Z,10.60
2022-11-04T04:38:25.602Z,10.50
2022-11-04T04:41:18.749Z,10.60
2022-11-04T04:44:04.298Z,10.18
2022-11-04T04:46:32.691Z,9.93
2022-11-04T04:49:08.428Z,10.30
2022-11-04T04:51:39.944Z,10.95
2022-11-04T04:54:07.745Z,11.23
2022-11-04T04:56:34.880Z,11.23
2022-11-04T04:59:01.922Z,11.50
2022-11-04T05:01:29.341Z,11.48
2022-11-04T05:03:56.504Z,11.23
2022-11-04T05:06:23.537Z,11.88
2022-11-04T05:08:50.590Z,11.25
2022-11-04T05:11:20.493Z,10.93
2022-11-04T05:13:49.871Z,11.30
2022-11-04T05:16:16.920Z,11.85
2022-11-04T05:18:44.106Z,11.55
2022-11-04T05:21:14.388Z,12.80
2022-11-04T05:26:08.609Z,11.93
2022-11-04T05:28:35.735Z,12.35
2022-11-04T05:31:04.584Z,11.82
2022-11-04T05:33:32.263Z,12.02
2022-11-04T05:36:11.343Z,12.75
2022-11-04T05:38:39.509Z,11.50
2022-11-04T05:41:08.144Z,11.55
2022-11-04T05:43:35.290Z,11.80
2022-11-04T05:46:02.988Z,10.60
2022-11-04T05:48:30.146Z,11.48
2022-11-04T05:50:57.493Z,11.02
2022-11-04T05:53:24.680Z,11.40
2022-11-04T05:55:51.905Z,11.23
2022-11-04T05:58:19.073Z,11.38
2022-11-04T06:00:46.185Z,11.48
2022-11-04T06:03:16.225Z,10.95
2022-11-04T06:05:43.797Z,11.30
2022-11-04T06:08:10.966Z,11.32
2022-11-04T06:10:38.356Z,11.25
2022-11-04T06:13:05.528Z,11.77
2022-11-04T06:15:32.663Z,11.43
2022-11-04T06:17:59.793Z,11.63
2022-11-04T06:20:26.823Z,11.68
2022-11-04T06:22:54.017Z,11.57
2022-11-04T06:25:21.233Z,13.30
2022-11-04T06:27:48.369Z,11.73
2022-11-04T06:30:15.665Z,11.48
2022-11-04T06:32:42.841Z,11.85
2022-11-04T06:35:10.031Z,11.80
2022-11-04T06:37:38.104Z,12.02
2022-11-04T06:40:05.753Z,11.98
2022-11-04T06:42:32.785Z,12.73
2022-11-04T06:44:59.904Z,12.95
2022-11-04T06:47:26.966Z,13.93
2022-11-04T06:49:54.112Z,15.13
2022-11-04T06:52:21.239Z,13.63
2022-11-04T06:54:48.353Z,14.32
2022-11-04T06:57:15.429Z,13.93
2022-11-04T06:59:42.474Z,13.95
2022-11-04T07:02:11.945Z,14.48
2022-11-04T07:04:39.076Z,13.95
2022-11-04T07:07:06.293Z,12.32
2022-11-04T07:09:34.097Z,13.07
2022-11-04T07:12:01.628Z,12.68
2022-11-04T07:14:28.909Z,12.23
2022-11-04T07:16:55.952Z,12.73
2022-11-04T07:19:23.065Z,12.52
2022-11-04T07:21:50.403Z,11.82
2022-11-04T07:24:17.776Z,11.70
2022-11-04T07:26:45.068Z,12.15
2022-11-04T07:29:12.259Z,12.00
2022-11-04T07:31:39.555Z,11.43
2022-11-04T07:34:06.817Z,11.50
2022-11-04T07:36:34.034Z,10.75
2022-11-04T07:39:02.272Z,10.98
2022-11-04T07:41:29.794Z,11.63
2022-11-04T07:43:59.066Z,11.02
2022-11-04T07:46:26.184Z,11.27
2022-11-04T07:48:53.356Z,11.52
2022-11-04T07:51:21.499Z,10.43
2022-11-04T07:53:48.584Z,9.98
2022-11-04T07:56:16.312Z,10.20
2022-11-04T07:58:43.597Z,10.55
2022-11-04T08:01:14.099Z,11.55
2022-11-04T08:03:41.380Z,11.13
2022-11-04T08:06:11.788Z,11.48
2022-11-04T08:11:17.031Z,11.50
2022-11-04T08:13:46.374Z,11.25
2022-11-04T08:16:16.441Z,10.02
2022-11-04T08:18:44.650Z,11.35
2022-11-04T08:21:12.168Z,11.35
2022-11-04T08:23:39.346Z,10.88
2022-11-04T08:26:11.481Z,12.07
2022-11-04T08:28:39.736Z,10.90
2022-11-04T08:31:08.298Z,10.23
2022-11-04T08:33:36.856Z,10.43
2022-11-04T08:36:10.076Z,10.95
2022-11-04T08:38:37.674Z,11.40
2022-11-04T08:41:06.659Z,11.10
2022-11-04T08:43:35.106Z,11.68
2022-11-04T08:46:03.100Z,10.68
2022-11-04T08:48:30.242Z,11.10
2022-11-04T08:51:01.227Z,10.55
2022-11-04T08:53:28.407Z,10.93
2022-11-04T08:55:55.611Z,11.32
2022-11-04T08:58:24.986Z,11.57
2022-11-04T09:00:52.558Z,11.48
2022-11-04T09:03:19.704Z,11.38
2022-11-04T09:05:49.287Z,11.63
2022-11-04T09:08:18.131Z,11.50
2022-11-04T09:10:48.188Z,11.85
2022-11-04T09:13:16.653Z,10.88
2022-11-04T09:15:44.465Z,11.52
2022-11-04T09:18:11.746Z,12.13
2022-11-04T09:20:38.957Z,11.65
2022-11-04T09:23:06.868Z,12.32
2022-11-04T09:25:35.528Z,11.80
2022-11-04T09:28:02.674Z,12.48
2022-11-04T09:30:29.767Z,12.55
2022-11-04T09:32:56.879Z,12.18
2022-11-04T09:35:24.461Z,13.10
2022-11-04T09:37:51.678Z,12.15
2022-11-04T09:40:22.033Z,12.00
2022-11-04T09:45:23.227Z,41.40
2022-11-04T09:47:55.433Z,18.33
2022-11-04T09:50:34.376Z,17.55
2022-11-04T09:53:07.716Z,37.72
2022-11-04T09:56:02.546Z,18.25
2022-11-04T09:58:37.019Z,14.35
2022-11-04T10:01:20.988Z,14.65
2022-11-04T10:04:02.021Z,13.43
2022-11-04T10:07:17.142Z,15.90
2022-11-04T10:10:00.737Z,15.60
2022-11-04T10:13:08.083Z,42.88
2022-11-04T10:15:44.779Z,13.90
2022-11-04T10:18:20.959Z,14.27
2022-11-04T10:20:48.297Z,14.07
2022-11-04T10:23:31.727Z,13.93
2022-11-04T10:26:15.477Z,13.98
2022-11-04T10:28:53.382Z,14.65
2022-11-04T10:31:20.672Z,16.38
2022-11-04T10:33:55.329Z,17.63
2022-11-04T10:36:25.237Z,18.90
2022-11-04T10:38:56.984Z,19.10
2022-11-04T10:41:39.546Z,20.38
2022-11-04T10:44:20.428Z,21.80
2022-11-04T10:46:54.561Z,20.83
2022-11-04T10:52:45.868Z,22.48
2022-11-04T10:55:31.194Z,18.85
2022-11-04T10:57:59.550Z,19.92
2022-11-04T11:00:39.536Z,19.08
2022-11-04T11:03:29.080Z,20.65
2022-11-04T11:06:14.636Z,20.73
2022-11-04T11:08:44.383Z,19.75
2022-11-04T11:11:13.539Z,21.98
2022-11-04T11:13:43.829Z,20.63
2022-11-04T11:16:13.631Z,20.15
2022-11-04T11:18:42.233Z,20.30
2022-11-04T11:21:16.237Z,18.65
2022-11-04T11:23:48.712Z,18.30
2022-11-04T11:26:20.029Z,17.05
2022-11-04T11:29:02.470Z,17.95
2022-11-04T11:31:38.179Z,17.05
2022-11-04T11:34:22.190Z,18.67
2022-11-04T11:36:50.173Z,18.23
2022-11-04T11:39:22.189Z,18.25
2022-11-04T11:42:04.507Z,16.77
2022-11-04T11:44:37.676Z,16.45
2022-11-04T11:47:07.628Z,17.17
2022-11-04T11:49:36.921Z,16.02
2022-11-04T11:52:27.668Z,16.90
2022-11-04T11:55:04.443Z,15.77
2022-11-04T12:00:40.268Z,15.32
2022-11-04T12:06:30.319Z,17.13
2022-11-04T12:09:35.051Z,16.38
2022-11-04T12:12:16.734Z,17.30
2022-11-04T12:15:05.218Z,16.30
2022-11-04T12:18:09.591Z,17.40
2022-11-04T12:20:39.559Z,16.38
2022-11-04T12:23:25.226Z,17.75
2022-11-04T12:26:14.188Z,19.38
2022-11-04T12:29:09.144Z,19.80
2022-11-04T12:31:54.707Z,18.50
2022-11-04T12:35:03.085Z,20.83
2022-11-04T12:38:05.627Z,21.05
2022-11-04T12:41:04.865Z,18.92
2022-11-04T12:43:43.431Z,18.87
2022-11-04T12:46:30.736Z,18.92
2022-11-04T12:49:21.096Z,30.15
2022-11-04T12:52:26.696Z,19.75
2022-11-04T12:55:14.467Z,26.70
2022-11-04T12:57:47.299Z,28.70
2022-11-04T13:00:17.825Z,22.88
2022-11-04T13:03:00.139Z,21.63
2022-11-04T13:05:58.645Z,39.15
2022-11-04T13:08:31.389Z,19.15
2022-11-04T13:11:24.046Z,18.45
2022-11-04T13:14:01.752Z,17.10
2022-11-04T13:16:31.903Z,18.27
2022-11-04T13:18:59.907Z,17.23
2022-11-04T13:21:34.557Z,16.88
2022-11-04T13:24:32.188Z,17.00
2022-11-04T13:27:04.037Z,16.85
2022-11-04T13:29:34.749Z,17.15
2022-11-04T13:32:07.512Z,17.98
2022-11-04T13:35:16.305Z,17.45
2022-11-04T13:37:58.789Z,17.77
2022-11-04T13:40:52.705Z,18.13
2022-11-04T13:43:40.196Z,16.98
2022-11-04T13:46:19.265Z,17.90
2022-11-04T13:49:11.618Z,16.30
2022-11-04T13:51:43.423Z,16.75
2022-11-04T13:54:34.211Z,16.52
2022-11-04T13:57:12.630Z,17.02
2022-11-04T13:59:40.670Z,16.90
2022-11-04T14:02:19.814Z,18.92
2022-11-04T14:04:47.946Z,17.77
2022-11-04T14:07:18.196Z,18.02
2022-11-04T14:09:45.264Z,17.90
2022-11-04T14:12:17.270Z,16.40
2022-11-04T14:14:46.218Z,17.25
2022-11-04T14:17:35.303Z,16.95
2022-11-04T14:20:07.937Z,17.65
2022-11-04T14:22:49.514Z,17.10
2022-11-04T14:25:36.715Z,16.45
2022-11-04T14:28:19.946Z,15.98
2022-11-04T14:30:53.704Z,16.08
2022-11-04T14:33:29.226Z,15.88
2022-11-04T14:35:57.844Z,16.98
2022-11-04T14:38:27.515Z,17.23
2022-11-04T14:41:16.587Z,17.27
2022-11-04T14:43:46.838Z,17.88
2022-11-04T14:46:22.389Z,19.15
2022-11-04T14:48:53.667Z,45.40
2022-11-04T14:51:41.006Z,63.30
2022-11-04T14:54:20.469Z,55.80
2022-11-04T14:56:47.637Z,22.60
2022-11-04T14:59:23.309Z,20.55
2022-11-04T15:01:52.645Z,24.95
2022-11-04T15:04:31.247Z,32.53
2022-11-04T15:07:01.649Z,20.70
2022-11-04T15:12:32.445Z,18.45
2022-11-04T15:15:00.266Z,19.85
2022-11-04T15:17:31.584Z,21.38
2022-11-04T15:20:02.236Z,23.27
2022-11-04T15:22:30.715Z,20.63
2022-11-04T15:25:02.876Z,21.20
2022-11-04T15:27:30.663Z,23.35
2022-11-04T15:30:00.886Z,21.10
2022-11-04T15:32:28.307Z,58.10
2022-11-04T15:34:56.620Z,21.27
2022-11-04T15:37:26.182Z,27.63
2022-11-04T15:39:56.679Z,24.88
2022-11-04T15:43:00.244Z,25.65
2022-11-04T15:45:38.591Z,26.00
2022-11-04T15:48:35.032Z,22.58
2022-11-04T15:51:22.908Z,31.73
2022-11-04T15:54:06.368Z,31.55
2022-11-04T15:56:42.666Z,34.42
2022-11-04T15:59:16.104Z,20.30
2022-11-04T16:01:48.810Z,25.58
2022-11-04T16:04:18.285Z,36.58
2022-11-04T16:06:48.272Z,24.27
2022-11-04T16:09:27.144Z,29.67
2022-11-04T16:12:16.775Z,28.42
2022-11-04T16:14:52.365Z,23.70
2022-11-04T16:17:20.764Z,26.92
2022-11-04T16:20:04.557Z,19.35
2022-11-04T16:22:35.632Z,22.92
2022-11-04T16:25:05.716Z,24.67
2022-11-04T16:27:35.375Z,19.83
2022-11-04T16:30:06.474Z,22.02
2022-11-04T16:32:44.198Z,20.85
2022-11-04T16:35:22.054Z,27.27
2022-11-04T16:37:50.989Z,21.48
2022-11-04T16:40:19.462Z,23.33
2022-11-04T16:42:47.712Z,19.30
2022-11-04T16:45:23.854Z,20.13
2022-11-04T16:47:51.436Z,21.10
2022-11-04T16:50:18.854Z,26.08
2022-11-04T16:52:46.114Z,19.70
2022-11-04T16:55:15.046Z,33.70
2022-11-04T16:57:42.786Z,28.23
2022-11-04T17:00:23.415Z,29.83
2022-11-04T17:02:51.768Z,24.90
2022-11-04T17:05:19.638Z,21.92
2022-11-04T17:07:53.776Z,19.25
2022-11-04T17:10:25.673Z,25.92
2022-11-04T17:12:53.160Z,32.15
2022-11-04T17:15:20.577Z,26.20
2022-11-04T17:17:47.791Z,19.30
2022-11-04T17:20:17.886Z,35.60
2022-11-04T17:22:47.166Z,21.33
2022-11-04T17:25:21.123Z,19.75
2022-11-04T17:27:49.313Z,21.88
2022-11-04T17:30:17.452Z,24.08
2022-11-04T17:32:45.884Z,21.52
2022-11-04T17:35:13.874Z,27.80
2022-11-04T17:37:41.792Z,34.40
2022-11-04T17:40:13.903Z,24.45
2022-11-04T17:42:59.958Z,22.90
2022-11-04T17:45:27.223Z,25.98
2022-11-04T17:47:54.349Z,22.10
2022-11-04T17:50:21.786Z,22.92
2022-11-04T17:52:49.506Z,24.55
2022-11-04T17:55:20.701Z,24.88
2022-11-04T17:57:50.314Z,20.80
2022-11-04T18:00:18.394Z,23.90
2022-11-04T18:02:49.111Z,21.48
2022-11-04T18:05:16.425Z,23.55
2022-11-04T18:07:43.487Z,28.58
2022-11-04T18:10:11.668Z,22.98
2022-11-04T18:12:38.909Z,25.05
2022-11-04T18:15:10.321Z,26.55
2022-11-04T18:17:39.355Z,24.20
2022-11-04T18:20:13.391Z,26.65
2022-11-04T18:22:42.784Z,28.05
2022-11-04T18:25:11.614Z,26.48
2022-11-04T18:27:39.046Z,26.75
2022-11-04T18:30:07.291Z,26.95
2022-11-04T18:32:34.381Z,27.10
2022-11-04T18:35:01.480Z,30.42
2022-11-04T18:37:29.192Z,26.08
2022-11-04T18:39:56.386Z,27.70
2022-11-04T18:42:23.509Z,30.92
2022-11-04T18:44:50.837Z,27.60
2022-11-04T18:47:18.268Z,31.40
2022-11-04T18:49:47.220Z,31.92
2022-11-04T18:52:14.566Z,29.33
2022-11-04T18:54:44.889Z,26.35
2022-11-04T18:57:12.376Z,29.23
2022-11-04T18:59:39.617Z,31.02
2022-11-04T19:02:08.313Z,28.98
2022-11-04T19:04:35.535Z,29.40
2022-11-04T19:07:04.568Z,28.70
2022-11-04T19:09:46.121Z,34.53
2022-11-04T19:12:32.667Z,29.48
2022-11-04T19:14:59.834Z,29.98
2022-11-04T19:17:27.032Z,28.58
2022-11-04T19:19:54.242Z,28.90
2022-11-04T19:22:21.537Z,29.40
2022-11-04T19:24:48.855Z,30.67
2022-11-04T19:27:18.047Z,30.25
2022-11-04T19:29:46.143Z,32.97
2022-11-04T19:32:14.513Z,30.13
2022-11-04T19:34:42.818Z,33.65
2022-11-04T19:37:11.006Z,29.85
2022-11-04T19:39:38.998Z,27.95
2022-11-04T19:42:24.488Z,30.50
2022-11-04T19:44:51.859Z,27.77
2022-11-04T19:47:19.248Z,28.90
2022-11-04T19:49:46.497Z,30.50
2022-11-04T19:52:14.054Z,30.48
2022-11-04T19:54:41.188Z,29.70
2022-11-04T19:57:08.379Z,29.58
2022-11-04T19:59:35.591Z,29.77
2022-11-04T20:02:02.858Z,31.20
2022-11-04T20:04:30.096Z,32.58
2022-11-04T20:06:57.227Z,34.42
2022-11-04T20:09:26.208Z,31.38
2022-11-04T20:12:11.870Z,30.23
2022-11-04T20:14:39.448Z,31.05
2022-11-04T20:17:07.382Z,32.22
2022-11-04T20:19:35.474Z,31.45
2022-11-04T20:22:03.676Z,31.25
2022-11-04T20:24:31.006Z,33.35
2022-11-04T20:26:58.153Z,30.42
2022-11-04T20:29:25.197Z,29.92
2022-11-04T20:31:52.367Z,27.55
2022-11-04T20:34:19.654Z,27.10
2022-11-04T20:36:47.006Z,32.42
2022-11-04T20:39:17.606Z,34.53
2022-11-04T20:41:45.574Z,32.38
2022-11-04T20:44:14.966Z,36.53
2022-11-04T20:46:43.296Z,33.88
2022-11-04T20:49:11.371Z,32.40
2022-11-04T20:51:50.105Z,35.80
2022-11-04T20:56:46.238Z,29.30
2022-11-04T20:59:14.190Z,31.30
2022-11-04T21:01:43.616Z,31.48
2022-11-04T21:04:15.244Z,31.97
2022-11-04T21:06:42.867Z,34.38
2022-11-04T21:09:13.037Z,36.35
2022-11-04T21:11:40.911Z,32.30
2022-11-04T21:14:11.752Z,35.40
2022-11-04T21:16:38.996Z,35.97
2022-11-04T21:19:06.728Z,39.30
2022-11-04T21:21:33.878Z,37.20
2022-11-04T21:24:03.395Z,40.63
2022-11-04T21:26:34.337Z,35.93
2022-11-04T21:29:07.309Z,40.30
2022-11-04T21:31:36.469Z,39.25
2022-11-04T21:34:04.927Z,36.05
2022-11-04T21:36:32.907Z,36.22
2022-11-04T21:39:00.585Z,39.53
2022-11-04T21:41:30.758Z,36.00
2022-11-04T21:44:03.187Z,34.55
2022-11-04T21:46:31.854Z,32.88
2022-11-04T21:48:59.717Z,36.00
2022-11-04T21:51:29.821Z,35.85
2022-11-04T21:53:58.288Z,33.47
2022-11-04T21:56:28.027Z,35.80
2022-11-04T21:58:56.152Z,33.75
2022-11-04T22:01:26.461Z,36.80
2022-11-04T22:06:22.851Z,35.67
2022-11-04T22:08:54.547Z,33.17
2022-11-04T22:11:24.912Z,37.85
2022-11-04T22:16:27.181Z,32.13
2022-11-04T22:18:56.147Z,33.10
2022-11-04T22:21:25.216Z,35.63
2022-11-04T22:23:52.666Z,29.17
2022-11-04T22:26:22.311Z,35.28
2022-11-04T22:28:49.465Z,37.83
2022-11-04T22:31:24.519Z,34.25
2022-11-04T22:33:52.466Z,35.38
2022-11-04T22:36:20.365Z,36.42
2022-11-04T22:38:47.780Z,38.97
2022-11-04T22:41:19.615Z,36.13
2022-11-04T22:43:46.857Z,38.45
2022-11-04T22:46:19.746Z,36.65
2022-11-04T22:48:47.130Z,39.25
2022-11-04T22:51:14.349Z,34.08
2022-11-04T22:53:41.889Z,37.28
2022-11-04T22:56:11.945Z,39.28
2022-11-04T22:58:39.198Z,36.10
2022-11-04T23:01:10.089Z,38.88
2022-11-04T23:03:37.726Z,38.60
2022-11-04T23:06:06.837Z,38.33
2022-11-04T23:08:35.677Z,38.00
2022-11-04T23:11:43.864Z,36.75
2022-11-04T23:14:34.011Z,39.10
2022-11-04T23:17:19.803Z,37.47
2022-11-04T23:19:46.930Z,34.90
2022-11-04T23:22:32.779Z,36.35
2022-11-04T23:25:05.953Z,35.55
2022-11-04T23:27:53.104Z,41.38
2022-11-04T23:30:26.811Z,33.70
2022-11-04T23:33:02.473Z,38.50
2022-11-04T23:35:58.140Z,37.47
2022-11-04T23:38:25.946Z,36.25
2022-11-04T23:41:15.562Z,36.10
2022-11-04T23:43:42.777Z,36.23
2022-11-04T23:46:29.536Z,36.33
2022-11-04T23:49:15.393Z,35.42
2022-11-04T23:52:01.311Z,35.92
2022-11-04T23:54:47.199Z,35.13
2022-11-04T23:57:35.126Z,39.38
